Time;durP1;ratioP1;P1;durP2;ratioP2;P2;SDS_P1;SDS_P2;PMS_P1;PMS_P2;Temp;Humidity;BMP_temperature;BMP_pressure;BME280_temperature;BME280_humidity;BME280_pressure;Samples;Min_cycle;Max_cycle;Signal;HPM_P1;HPM_P2
2023/05/16 00:01:15;;;;;;;10.38;8.80;;;;;;;;;;5074464;28;20028;-76
2023/05/16 00:03:42;;;;;;;9.45;8.32;;;;;;;;;;5072915;28;20020;-76
2023/05/16 00:06:08;;;;;;;10.05;8.68;;;;;;;;;;5074201;28;20029;-76
2023/05/16 00:08:34;;;;;;;11.07;9.65;;;;;;;;;;5062187;28;20040;-77
2023/05/16 00:11:00;;;;;;;11.15;9.88;;;;;;;;;;5067220;28;20103;-74
2023/05/16 00:13:26;;;;;;;10.57;8.90;;;;;;;;;;5057967;28;20119;-75
2023/05/16 00:15:53;;;;;;;11.63;10.15;;;;;;;;;;5074107;28;20097;-76
2023/05/16 00:18:21;;;;;;;15.82;9.27;;;;;;;;;;5073098;28;20032;-73
2023/05/16 00:20:47;;;;;;;13.18;9.90;;;;;;;;;;5073274;28;20022;-76
2023/05/16 00:23:14;;;;;;;14.52;10.52;;;;;;;;;;5073408;28;20100;-76
2023/05/16 00:25:40;;;;;;;12.25;9.90;;;;;;;;;;5073277;28;20083;-76
2023/05/16 00:28:07;;;;;;;13.13;9.75;;;;;;;;;;5080299;28;20142;-75
2023/05/16 00:30:33;;;;;;;16.25;13.25;;;;;;;;;;5067116;28;20013;-75
2023/05/16 00:32:59;;;;;;;17.23;13.20;;;;;;;;;;5053486;28;20021;-76
2023/05/16 00:35:25;;;;;;;13.82;11.68;;;;;;;;;;5056373;28;20059;-75
2023/05/16 00:37:51;;;;;;;14.52;11.45;;;;;;;;;;5054844;28;20477;-77
2023/05/16 00:40:17;;;;;;;14.32;10.63;;;;;;;;;;5056830;28;20028;-77
2023/05/16 00:42:43;;;;;;;13.38;10.35;;;;;;;;;;5039665;28;20032;-76
2023/05/16 00:45:10;;;;;;;12.32;10.85;;;;;;;;;;5065296;28;20047;-77
2023/05/16 00:47:36;;;;;;;13.68;11.68;;;;;;;;;;5071385;28;20030;-77
2023/05/16 00:50:03;;;;;;;24.58;18.02;;;;;;;;;;5071575;28;20032;-76
2023/05/16 00:52:29;;;;;;;25.38;19.00;;;;;;;;;;5070745;28;20387;-75
2023/05/16 00:54:56;;;;;;;17.48;13.48;;;;;;;;;;5067803;28;20028;-75
2023/05/16 00:57:23;;;;;;;22.75;18.55;;;;;;;;;;5054389;28;20359;-74
2023/05/16 00:59:49;;;;;;;18.73;15.20;;;;;;;;;;5056138;28;20076;-75
2023/05/16 01:02:15;;;;;;;26.38;20.67;;;;;;;;;;5055285;28;20020;-73
2023/05/16 01:04:43;;;;;;;23.52;18.52;;;;;;;;;;5052219;28;20031;-74
2023/05/16 01:07:09;;;;;;;24.00;20.35;;;;;;;;;;5054823;28;20036;-76
2023/05/16 01:09:35;;;;;;;26.92;19.05;;;;;;;;;;5070355;28;20073;-75
2023/05/16 01:12:40;;;;;;;20.33;16.90;;;;;;;;;;5059106;28;20028;-77
2023/05/16 01:15:10;;;;;;;25.90;22.15;;;;;;;;;;5007561;28;20045;-75
2023/05/16 01:17:51;;;;;;;27.45;21.85;;;;;;;;;;5008829;28;20037;-77
2023/05/16 01:20:25;;;;;;;25.90;20.98;;;;;;;;;;5036949;28;20048;-77
2023/05/16 01:23:05;;;;;;;27.67;21.48;;;;;;;;;;5071653;28;20060;-77
2023/05/16 01:25:39;;;;;;;27.17;22.20;;;;;;;;;;5065569;28;20024;-75
2023/05/16 01:28:05;;;;;;;27.15;21.98;;;;;;;;;;5068175;28;20056;-76
2023/05/16 01:30:34;;;;;;;27.98;21.48;;;;;;;;;;5069931;28;20028;-76
2023/05/16 01:33:00;;;;;;;29.95;24.65;;;;;;;;;;5052414;28;20397;-76
2023/05/16 01:35:26;;;;;;;38.60;27.00;;;;;;;;;;5069725;28;20063;-76
2023/05/16 01:37:58;;;;;;;30.48;24.25;;;;;;;;;;5069308;28;20073;-76
2023/05/16 01:40:36;;;;;;;36.63;27.83;;;;;;;;;;5051217;28;20025;-75
2023/05/16 01:43:04;;;;;;;34.85;26.23;;;;;;;;;;5051971;28;20056;-77
2023/05/16 01:45:32;;;;;;;33.55;26.73;;;;;;;;;;5069210;28;20491;-77
2023/05/16 01:48:04;;;;;;;39.83;28.17;;;;;;;;;;5066843;28;20032;-76
2023/05/16 01:50:31;;;;;;;39.97;29.27;;;;;;;;;;5076258;28;20059;-76
2023/05/16 01:52:58;;;;;;;38.13;28.27;;;;;;;;;;5075419;28;20028;-77
2023/05/16 01:55:34;;;;;;;44.38;31.63;;;;;;;;;;5057598;28;20155;-77
2023/05/16 01:58:02;;;;;;;43.25;28.63;;;;;;;;;;5067039;28;20036;-77
2023/05/16 02:00:28;;;;;;;41.33;30.67;;;;;;;;;;5071476;28;20522;-76
2023/05/16 02:02:54;;;;;;;47.47;32.80;;;;;;;;;;5069988;28;20095;-76
2023/05/16 02:05:20;;;;;;;45.75;33.33;;;;;;;;;;5071631;28;20397;-74
2023/05/16 02:07:46;;;;;;;46.47;33.53;;;;;;;;;;5070703;28;20032;-76
2023/05/16 02:10:13;;;;;;;42.42;29.60;;;;;;;;;;5071930;28;20024;-76
2023/05/16 02:12:39;;;;;;;43.65;31.55;;;;;;;;;;5053549;28;20031;-75
2023/05/16 02:15:05;;;;;;;43.70;31.00;;;;;;;;;;5054639;28;20918;-77
2023/05/16 02:17:31;;;;;;;46.65;33.47;;;;;;;;;;5052687;28;20033;-75
2023/05/16 02:19:57;;;;;;;47.72;34.63;;;;;;;;;;5053252;28;20128;-76
2023/05/16 02:22:23;;;;;;;46.85;32.45;;;;;;;;;;5054866;28;20025;-75
2023/05/16 02:24:49;;;;;;;46.08;34.30;;;;;;;;;;5067805;28;20381;-75
2023/05/16 02:27:15;;;;;;;49.03;34.03;;;;;;;;;;5070346;28;20020;-74
2023/05/16 02:29:41;;;;;;;48.22;33.72;;;;;;;;;;5077639;28;20035;-74
2023/05/16 02:32:07;;;;;;;44.38;32.92;;;;;;;;;;5067132;28;20078;-74
2023/05/16 02:34:33;;;;;;;45.88;33.67;;;;;;;;;;5067840;28;20027;-74
2023/05/16 02:36:59;;;;;;;49.35;33.97;;;;;;;;;;5068855;28;20029;-74
2023/05/16 02:39:25;;;;;;;47.00;35.10;;;;;;;;;;5057983;28;21103;-75
2023/05/16 02:41:51;;;;;;;46.67;33.97;;;;;;;;;;5049906;28;20028;-76
2023/05/16 02:44:17;;;;;;;47.15;33.30;;;;;;;;;;5061928;28;20087;-75
2023/05/16 02:46:43;;;;;;;48.38;32.33;;;;;;;;;;5061457;28;20025;-75
2023/05/16 02:49:09;;;;;;;47.80;35.20;;;;;;;;;;5077712;28;20632;-74
2023/05/16 02:51:35;;;;;;;48.42;33.95;;;;;;;;;;5076252;28;20023;-75
2023/05/16 02:54:01;;;;;;;52.35;36.20;;;;;;;;;;5081723;28;20074;-76
2023/05/16 02:56:27;;;;;;;54.95;36.30;;;;;;;;;;5071304;28;20025;-75
2023/05/16 02:58:54;;;;;;;49.45;34.95;;;;;;;;;;5069089;28;20029;-75
2023/05/16 03:01:20;;;;;;;48.33;35.15;;;;;;;;;;5072445;28;20390;-74
2023/05/16 03:03:46;;;;;;;48.10;33.95;;;;;;;;;;5068011;28;20706;-76
2023/05/16 03:06:12;;;;;;;50.42;35.10;;;;;;;;;;5072691;28;20035;-76
2023/05/16 03:08:38;;;;;;;53.25;35.95;;;;;;;;;;5072483;28;20028;-75
2023/05/16 03:11:04;;;;;;;48.20;33.63;;;;;;;;;;5072500;28;20027;-76
2023/05/16 03:13:30;;;;;;;52.97;36.55;;;;;;;;;;5065919;28;20036;-77
2023/05/16 03:15:56;;;;;;;57.17;37.92;;;11.10;99.90;;;;;;5073848;28;20028;-77
2023/05/16 03:18:21;;;;;;;58.05;38.50;;;11.10;99.90;;;;;;5071784;28;20507;-73
2023/05/16 03:20:47;;;;;;;60.05;39.38;;;11.00;99.90;;;;;;5058950;28;20040;-75
2023/05/16 03:23:12;;;;;;;58.65;37.53;;;11.00;99.90;;;;;;5066036;28;20453;-76
2023/05/16 03:25:38;;;;;;;62.70;41.72;;;10.90;99.90;;;;;;5066521;28;20077;-75
2023/05/16 03:28:07;;;;;;;56.83;38.22;;;10.90;99.90;;;;;;5075062;28;20052;-76
2023/05/16 03:30:33;;;;;;;65.85;41.72;;;10.90;99.90;;;;;;5073550;28;20029;-76
2023/05/16 03:32:59;;;;;;;64.68;40.65;;;10.80;99.90;;;;;;5068315;28;20059;-74
2023/05/16 03:35:25;;;;;;;70.82;41.90;;;10.80;99.90;;;;;;5070459;28;20117;-74
2023/05/16 03:37:51;;;;;;;55.15;37.00;;;10.80;99.90;;;;;;5074708;28;20059;-73
2023/05/16 03:40:17;;;;;;;57.78;38.67;;;10.80;99.90;;;;;;5093857;28;20468;-73
2023/05/16 03:42:42;;;;;;;68.68;43.35;;;10.70;99.90;;;;;;5074006;28;20509;-75
2023/05/16 03:45:10;;;;;;;67.60;42.40;;;10.70;99.90;;;;;;5067686;28;20375;-75
2023/05/16 03:47:35;;;;;;;73.10;43.28;;;10.70;99.90;;;;;;5058158;28;20036;-74
2023/05/16 03:50:02;;;;;;;72.68;45.13;;;10.70;99.90;;;;;;5058586;28;20045;-77
2023/05/16 03:52:27;;;;;;;65.88;40.75;;;10.70;99.90;;;;;;5062968;28;20483;-77
2023/05/16 03:54:53;;;;;;;68.70;43.92;;;10.70;99.90;;;;;;5073632;28;20025;-76
2023/05/16 03:57:18;;;;;;;71.07;44.40;;;10.70;99.90;;;;;;5070922;28;20382;-74
2023/05/16 03:59:44;;;;;;;74.85;46.10;;;10.70;99.90;;;;;;5072019;28;20071;-77
2023/05/16 04:02:10;;;;;;;71.10;45.08;;;10.70;99.90;;;;;;5061208;28;20047;-77
2023/05/16 04:04:35;;;;;;;77.72;47.72;;;10.70;99.90;;;;;;5071773;28;20024;-75
2023/05/16 04:07:02;;;;;;;77.32;46.58;;;10.70;99.90;;;;;;5068823;28;20128;-76
2023/05/16 04:09:27;;;;;;;73.30;43.30;;;10.80;99.90;;;;;;5065041;28;20426;-77
2023/05/16 04:11:55;;;;;;;77.82;45.95;;;10.80;99.90;;;;;;5048684;28;20112;-73
2023/05/16 04:14:22;;;;;;;80.13;46.80;;;10.80;99.90;;;;;;5063649;28;20051;-73
2023/05/16 04:16:47;;;;;;;76.68;47.70;;;10.90;99.90;;;;;;5069907;28;20040;-74
2023/05/16 04:19:13;;;;;;;75.28;47.30;;;10.90;99.90;;;;;;5065807;28;20039;-74
2023/05/16 04:21:38;;;;;;;74.32;44.92;;;10.90;99.90;;;;;;5060089;28;20036;-74
2023/05/16 04:24:04;;;;;;;75.78;46.70;;;10.90;99.90;;;;;;5071436;28;20389;-74
2023/05/16 04:26:30;;;;;;;75.70;46.78;;;11.00;99.90;;;;;;5070849;28;20024;-73
2023/05/16 04:28:57;;;;;;;72.85;45.55;;;11.00;99.90;;;;;;5071611;28;20362;-74
2023/05/16 04:31:24;;;;;;;71.97;44.30;;;11.00;99.90;;;;;;5072488;28;20096;-73
2023/05/16 04:33:50;;;;;;;73.45;45.45;;;11.00;99.90;;;;;;5059719;28;20037;-74
2023/05/16 04:36:15;;;;;;;72.63;44.97;;;11.10;99.90;;;;;;5048374;28;20082;-74
2023/05/16 04:38:41;;;;;;;71.10;45.08;;;11.10;99.90;;;;;;5055317;28;20028;-78
2023/05/16 04:41:07;;;;;;;71.97;43.90;;;11.20;99.90;;;;;;5055611;28;20036;-75
2023/05/16 04:43:33;;;;;;;73.18;46.63;;;11.20;99.90;;;;;;5056009;28;20032;-73
2023/05/16 04:45:58;;;;;;;72.65;44.47;;;11.20;99.90;;;;;;5056903;28;20033;-73
2023/05/16 04:48:24;;;;;;;71.95;44.72;;;11.30;99.90;;;;;;5051853;28;20517;-73
2023/05/16 04:50:51;;;;;;;71.57;44.40;;;11.30;99.90;;;;;;5057061;28;20025;-74
2023/05/16 04:53:16;;;;;;;67.95;43.03;;;11.40;99.90;;;;;;5060395;28;20024;-74
2023/05/16 04:55:42;;;;;;;71.47;42.72;;;11.50;99.90;;;;;;5057077;28;20020;-75
2023/05/16 04:58:08;;;;;;;68.95;42.10;;;11.50;99.90;;;;;;5064265;28;20037;-75
2023/05/16 05:00:33;;;;;;;57.45;36.72;;;11.60;99.90;;;;;;5071538;28;20035;-75
2023/05/16 05:02:59;;;;;;;65.18;42.88;;;11.60;99.90;;;;;;5063757;28;20453;-75
2023/05/16 05:05:25;;;;;;;62.45;41.00;;;11.70;99.90;;;;;;5071000;28;20442;-74
2023/05/16 05:07:51;;;;;;;63.03;40.38;;;11.70;99.90;;;;;;5064047;28;20029;-75
2023/05/16 05:10:17;;;;;;;65.45;43.05;;;11.80;99.90;;;;;;5056988;28;20485;-73
2023/05/16 05:12:42;;;;;;;70.25;42.65;;;11.80;99.90;;;;;;5051568;28;20033;-76
2023/05/16 05:15:08;;;;;;;65.82;42.42;;;11.90;99.90;;;;;;5055645;28;20071;-73
2023/05/16 05:17:34;;;;;;;70.20;42.53;;;12.00;99.90;;;;;;5051363;28;20036;-74
2023/05/16 05:19:59;;;;;;;64.90;42.10;;;11.90;99.90;;;;;;5056984;28;20145;-73
2023/05/16 05:22:25;;;;;;;67.80;43.65;;;11.90;99.90;;;;;;5053041;28;20040;-73
2023/05/16 05:24:50;;;;;;;67.97;43.05;;;12.00;99.90;;;;;;5065505;28;20025;-72
2023/05/16 05:27:16;;;;;;;64.68;42.08;;;12.00;99.90;;;;;;5072706;28;20039;-71
2023/05/16 05:29:42;;;;;;;65.90;42.33;;;12.10;99.90;;;;;;5068342;28;20016;-71
2023/05/16 05:32:07;;;;;;;61.28;40.40;;;12.10;99.90;;;;;;5059768;28;20442;-72
2023/05/16 05:34:33;;;;;;;66.82;40.15;;;12.10;99.90;;;;;;5064789;28;20052;-71
2023/05/16 05:36:59;;;;;;;70.43;40.88;;;12.00;99.90;;;;;;5065819;28;20027;-76
2023/05/16 05:39:25;;;;;;;63.30;40.70;;;12.10;99.90;;;;;;5060992;28;20039;-75
2023/05/16 05:41:50;;;;;;;59.38;39.88;;;12.10;99.90;;;;;;5070216;28;20497;-73
2023/05/16 05:44:16;;;;;;;61.15;41.53;;;12.10;99.90;;;;;;5058267;28;20146;-72
2023/05/16 05:46:42;;;;;;;61.88;41.40;;;12.10;99.90;;;;;;5063614;28;20021;-73
2023/05/16 05:49:07;;;;;;;61.60;40.00;;;12.10;99.90;;;;;;5061766;28;20094;-73
2023/05/16 05:51:33;;;;;;;59.75;40.78;;;12.10;99.90;;;;;;5048636;28;20032;-73
2023/05/16 05:54:00;;;;;;;60.00;40.63;;;12.10;99.90;;;;;;5055619;28;20028;-73
2023/05/16 05:56:26;;;;;;;60.25;39.50;;;12.10;99.90;;;;;;5068273;28;20060;-72
2023/05/16 05:58:51;;;;;;;63.25;41.28;;;12.10;99.90;;;;;;5069472;28;20076;-73
2023/05/16 06:01:17;;;;;;;67.18;40.83;;;12.10;99.90;;;;;;5051172;28;20037;-75
2023/05/16 06:03:43;;;;;;;64.55;42.45;;;12.10;99.90;;;;;;5069639;28;20044;-73
2023/05/16 06:06:08;;;;;;;64.13;40.83;;;12.10;99.90;;;;;;5054503;28;20119;-72
2023/05/16 06:08:34;;;;;;;59.85;39.00;;;12.00;99.90;;;;;;5076819;28;20409;-72
2023/05/16 06:11:00;;;;;;;63.58;41.20;;;12.00;99.90;;;;;;5068986;28;20040;-75
2023/05/16 06:13:26;;;;;;;60.45;40.10;;;12.00;99.90;;;;;;5065966;28;20044;-73
2023/05/16 06:15:52;;;;;;;60.97;40.10;;;12.00;99.90;;;;;;5062746;28;20504;-72
2023/05/16 06:18:18;;;;;;;67.78;40.15;;;12.10;99.90;;;;;;5070944;28;20028;-73
2023/05/16 06:20:43;;;;;;;61.78;41.47;;;12.20;99.90;;;;;;5052931;28;20389;-77
2023/05/16 06:23:09;;;;;;;59.00;39.97;;;12.20;99.90;;;;;;5057592;28;20037;-75
2023/05/16 06:25:35;;;;;;;59.25;38.42;;;12.20;99.90;;;;;;5055653;28;20052;-76
2023/05/16 06:28:00;;;;;;;58.80;38.47;;;12.20;99.90;;;;;;5054138;28;20032;-76
2023/05/16 06:30:26;;;;;;;55.08;37.33;;;12.20;99.90;;;;;;5056204;28;20031;-76
2023/05/16 06:32:51;;;;;;;57.55;36.72;;;12.30;99.90;;;;;;5066435;28;20033;-76
2023/05/16 06:35:17;;;;;;;50.97;34.10;;;12.30;99.90;;;;;;5058163;28;20021;-76
2023/05/16 06:37:43;;;;;;;48.90;35.22;;;12.30;99.90;;;;;;5064018;28;20060;-78
2023/05/16 06:40:09;;;;;;;54.63;36.33;;;12.40;99.90;;;;;;5078787;28;20032;-77
2023/05/16 06:42:34;;;;;;;51.38;35.33;;;12.40;99.90;;;;;;5061175;28;20059;-71
2023/05/16 06:45:00;;;;;;;56.22;36.55;;;12.40;99.90;;;;;;5067741;28;20056;-73
2023/05/16 06:47:25;;;;;;;56.50;37.42;;;12.40;99.90;;;;;;5048114;28;20032;-71
2023/05/16 06:49:51;;;;;;;52.92;34.13;;;12.40;99.90;;;;;;5067875;28;20116;-73
2023/05/16 06:52:17;;;;;;;56.33;34.83;;;12.40;99.90;;;;;;5067714;28;20025;-72
2023/05/16 06:54:42;;;;;;;49.53;34.20;;;12.40;99.90;;;;;;5053894;28;20025;-73
2023/05/16 06:57:08;;;;;;;48.42;33.72;;;12.40;99.90;;;;;;5061987;28;20132;-73
2023/05/16 06:59:34;;;;;;;49.78;33.00;;;12.30;99.90;;;;;;5067726;28;20040;-73
2023/05/16 07:02:00;;;;;;;51.90;33.10;;;12.40;99.90;;;;;;5066806;28;20121;-73
2023/05/16 07:04:26;;;;;;;51.58;31.90;;;12.30;99.90;;;;;;5066101;28;20076;-72
2023/05/16 07:06:52;;;;;;;47.75;32.65;;;12.30;99.90;;;;;;5062638;28;20544;-73
2023/05/16 07:09:18;;;;;;;47.75;32.78;;;12.30;99.90;;;;;;5067349;28;20158;-74
2023/05/16 07:11:44;;;;;;;41.10;30.20;;;12.40;99.90;;;;;;5067291;28;20373;-72
2023/05/16 07:14:10;;;;;;;54.42;31.67;;;12.40;99.90;;;;;;5057041;28;20477;-73
2023/05/16 07:16:35;;;;;;;52.53;32.08;;;12.40;99.90;;;;;;5066053;28;20039;-73
2023/05/16 07:19:01;;;;;;;42.17;30.38;;;12.40;99.90;;;;;;5067043;28;20032;-72
2023/05/16 07:21:27;;;;;;;45.35;28.25;;;12.40;99.90;;;;;;5072477;28;20031;-73
2023/05/16 07:23:52;;;;;;;38.55;27.70;;;12.40;99.90;;;;;;5068645;28;20074;-73
2023/05/16 07:26:21;;;;;;;40.13;27.05;;;12.40;99.90;;;;;;5058816;28;20396;-73
2023/05/16 07:28:46;;;;;;;37.03;27.38;;;12.40;99.90;;;;;;5071992;28;20039;-72
2023/05/16 07:31:12;;;;;;;34.58;25.70;;;12.40;99.90;;;;;;5064517;28;20389;-72
2023/05/16 07:33:37;;;;;;;39.53;25.70;;;12.30;99.90;;;;;;5064365;28;20541;-73
2023/05/16 07:36:03;;;;;;;33.03;20.55;;;12.30;99.90;;;;;;5064966;28;20040;-73
2023/05/16 07:38:29;;;;;;;23.80;18.52;;;12.30;99.90;;;;;;5061921;28;20039;-72
2023/05/16 07:40:55;;;;;;;22.98;17.52;;;12.40;99.90;;;;;;5071575;28;20024;-73
2023/05/16 07:43:20;;;;;;;21.15;17.33;;;12.30;99.90;;;;;;5072247;28;20020;-71
2023/05/16 07:45:46;;;;;;;20.88;15.27;;;12.50;99.90;;;;;;5061341;28;20050;-72
2023/05/16 07:48:12;;;;;;;19.20;14.82;;;12.60;99.90;;;;;;5075863;28;20472;-72
2023/05/16 07:50:37;;;;;;;19.13;14.30;;;12.60;99.90;;;;;;5072945;28;20031;-74
2023/05/16 07:53:03;;;;;;;20.67;14.20;;;12.60;99.90;;;;;;5082892;28;20021;-73
2023/05/16 07:55:29;;;;;;;22.77;13.82;;;12.70;99.90;;;;;;5073322;28;20028;-73
2023/05/16 07:57:54;;;;;;;17.38;12.43;;;12.70;99.90;;;;;;5066988;28;20493;-72
2023/05/16 08:00:20;;;;;;;14.55;12.88;;;12.80;99.90;;;;;;5072417;28;20053;-72
2023/05/16 08:02:46;;;;;;;16.55;12.98;;;12.80;99.90;;;;;;5057948;28;20033;-73
2023/05/16 08:05:11;;;;;;;14.55;12.57;;;12.90;99.90;;;;;;5074051;28;20044;-73
2023/05/16 08:07:37;;;;;;;17.38;13.32;;;13.00;99.90;;;;;;5072442;28;20056;-73
2023/05/16 08:10:03;;;;;;;15.90;13.85;;;13.00;99.90;;;;;;5068033;28;20565;-74
2023/05/16 08:12:29;;;;;;;16.33;12.93;;;12.90;99.90;;;;;;5068279;28;20036;-73
2023/05/16 08:14:55;;;;;;;16.92;13.10;;;12.90;99.90;;;;;;5073150;28;20051;-73
2023/05/16 08:17:21;;;;;;;14.60;12.40;;;12.90;99.90;;;;;;5071387;28;20032;-72
2023/05/16 08:19:47;;;;;;;13.88;12.15;;;12.80;99.90;;;;;;5061510;28;20037;-72
2023/05/16 08:22:12;;;;;;;14.77;12.73;;;12.70;99.90;;;;;;5063400;28;20029;-73
2023/05/16 08:24:38;;;;;;;17.70;12.85;;;12.70;99.90;;;;;;5060892;28;20043;-72
2023/05/16 08:27:04;;;;;;;18.15;13.85;;;12.60;99.90;;;;;;5066947;28;20024;-73
2023/05/16 08:29:30;;;;;;;18.13;12.93;;;12.60;99.90;;;;;;5064231;28;20086;-73
2023/05/16 08:31:56;;;;;;;17.88;13.32;;;12.60;99.90;;;;;;5061016;28;20029;-72
2023/05/16 08:34:21;;;;;;;16.15;12.27;;;12.60;99.90;;;;;;5071320;28;20115;-73
2023/05/16 08:36:47;;;;;;;14.02;11.98;;;12.60;99.90;;;;;;5069317;28;20094;-73
2023/05/16 08:39:13;;;;;;;20.00;13.52;;;12.50;99.90;;;;;;5066286;28;20035;-73
2023/05/16 08:41:39;;;;;;;15.77;13.45;;;12.50;99.90;;;;;;5058313;28;20032;-72
2023/05/16 08:44:05;;;;;;;16.83;14.98;;;12.50;99.90;;;;;;5067497;28;20077;-73
2023/05/16 08:46:34;;;;;;;19.92;14.60;;;12.60;99.90;;;;;;5070666;28;20100;-73
2023/05/16 08:49:03;;;;;;;18.92;15.18;;;12.50;99.90;;;;;;5062398;28;20053;-72
2023/05/16 08:51:34;;;;;;;20.77;15.05;;;12.50;99.90;;;;;;5068774;28;20090;-73
2023/05/16 08:54:04;;;;;;;20.20;16.52;;;12.60;99.90;;;;;;5058804;28;20079;-73
2023/05/16 08:56:32;;;;;;;24.67;15.80;;;12.60;99.90;;;;;;5073991;28;20044;-73
2023/05/16 08:58:59;;;;;;;24.05;18.08;;;12.60;99.90;;;;;;5070133;28;20064;-71
2023/05/16 09:01:25;;;;;;;20.70;17.45;;;12.60;99.90;;;;;;5053276;28;20506;-72
2023/05/16 09:03:51;;;;;;;24.33;17.77;;;12.60;99.90;;;;;;5066451;28;20111;-71
2023/05/16 09:06:17;;;;;;;23.15;18.00;;;12.50;99.90;;;;;;5070894;28;20537;-72
2023/05/16 09:08:43;;;;;;;22.80;18.35;;;12.50;99.90;;;;;;5061184;28;20043;-72
2023/05/16 09:11:09;;;;;;;25.55;17.95;;;12.40;99.90;;;;;;5057852;28;20040;-71
2023/05/16 09:13:36;;;;;;;29.25;19.92;;;12.30;99.90;;;;;;5062366;28;20112;-71
2023/05/16 09:16:15;;;;;;;32.88;20.95;;;12.30;99.90;;;;;;5070858;28;20534;-71
2023/05/16 09:18:51;;;;;;;26.30;19.90;;;12.30;99.90;;;;;;5069966;28;20665;-71
2023/05/16 09:21:18;;;;;;;27.52;20.35;;;12.30;99.90;;;;;;5071199;28;20469;-70
2023/05/16 09:23:43;;;;;;;26.45;20.10;;;12.30;99.90;;;;;;5068437;28;20820;-71
2023/05/16 09:26:09;;;;;;;28.98;21.63;;;12.40;99.90;;;;;;5070884;28;20038;-72
2023/05/16 09:28:38;;;;;;;32.15;23.02;;;12.40;99.90;;;;;;5067875;28;20377;-71
2023/05/16 09:31:03;;;;;;;27.83;20.95;;;12.40;99.90;;;;;;5063838;28;20057;-71
2023/05/16 09:33:29;;;;;;;32.90;22.80;;;12.30;99.90;;;;;;5068312;28;20033;-72
2023/05/16 09:35:59;;;;;;;29.23;21.70;;;12.20;99.90;;;;;;5070664;28;20028;-70
2023/05/16 09:38:26;;;;;;;;;;;12.20;99.90;;;;;;5061847;28;20036;-72
2023/05/16 09:40:55;;;;;;;30.75;22.75;;;12.20;99.90;;;;;;5062919;28;20007;-71
2023/05/16 09:43:24;;;;;;;34.83;23.98;;;12.10;99.90;;;;;;5058892;28;20029;-70
2023/05/16 09:45:50;;;;;;;32.95;23.10;;;12.20;99.90;;;;;;5067652;28;20032;-71
2023/05/16 09:48:16;;;;;;;30.67;22.08;;;12.30;99.90;;;;;;5072398;28;20400;-71
2023/05/16 09:50:48;;;;;;;28.23;21.25;;;12.60;99.90;;;;;;5063957;28;20029;-71
2023/05/16 09:53:14;;;;;;;29.73;21.80;;;13.10;99.90;;;;;;5057604;28;20362;-71
2023/05/16 09:55:40;;;;;;;27.10;20.75;;;13.80;99.90;;;;;;5059173;28;20039;-71
2023/05/16 09:58:05;;;;;;;29.23;21.15;;;14.30;99.90;;;;;;5068635;28;20068;-71
2023/05/16 10:00:32;;;;;;;30.73;21.45;;;14.70;99.90;;;;;;5068704;28;20029;-71
2023/05/16 10:03:00;;;;;;;30.40;21.77;;;14.80;99.90;;;;;;5067804;28;20078;-71
2023/05/16 10:05:26;;;;;;;27.90;21.63;;;14.50;99.90;;;;;;5068235;28;20023;-71
2023/05/16 10:07:56;;;;;;;33.13;21.02;;;14.10;99.90;;;;;;5060075;28;20032;-72
2023/05/16 10:10:23;;;;;;;30.20;23.20;;;14.00;99.90;;;;;;5069339;28;20027;-74
2023/05/16 10:12:50;;;;;;;42.70;22.45;;;13.70;99.90;;;;;;5070753;28;20492;-74
2023/05/16 10:15:17;;;;;;;28.90;21.33;;;13.50;99.90;;;;;;5069533;28;20032;-71
2023/05/16 10:17:46;;;;;;;31.67;23.00;;;13.40;99.90;;;;;;5070244;28;20193;-82
2023/05/16 10:20:12;;;;;;;30.85;22.92;;;13.40;99.90;;;;;;5060816;28;20028;-77
2023/05/16 10:22:45;;;;;;;33.63;23.35;;;13.60;99.90;;;;;;5058832;28;20048;-71
2023/05/16 10:25:36;;;;;;;29.63;22.05;;;13.70;99.90;;;;;;5067782;28;20020;-71
2023/05/16 10:28:03;;;;;;;28.10;21.23;;;13.70;99.90;;;;;;5065978;28;20060;-72
2023/05/16 10:30:30;;;;;;;34.25;23.63;;;13.90;99.90;;;;;;5058408;28;20059;-71
2023/05/16 10:32:56;;;;;;;29.33;22.63;;;14.10;99.90;;;;;;5062422;28;20041;-72
2023/05/16 10:35:22;;;;;;;28.88;20.58;;;14.30;99.90;;;;;;5065350;28;20028;-70
2023/05/16 10:37:50;;;;;;;31.73;21.42;;;14.30;99.90;;;;;;5065116;28;20033;-72
2023/05/16 10:40:16;;;;;;;30.15;21.65;;;14.40;99.90;;;;;;5060723;28;20099;-72
2023/05/16 10:42:59;;;;;;;28.92;21.10;;;14.50;99.90;;;;;;5063394;28;20131;-72
2023/05/16 10:45:24;;;;;;;30.67;20.63;;;14.60;99.90;;;;;;5057168;28;20055;-71
2023/05/16 10:47:58;;;;;;;29.80;22.02;;;14.50;99.90;;;;;;5070713;28;20466;-72
2023/05/16 10:50:34;;;;;;;29.88;21.42;;;14.30;99.90;;;;;;5070122;28;20024;-70
2023/05/16 10:53:16;;;;;;;31.05;21.27;;;14.20;99.90;;;;;;5078826;28;20033;-72
2023/05/16 10:56:08;;;;;;;32.28;21.42;;;14.10;99.90;;;;;;5063511;28;20048;-71
2023/05/16 10:58:41;;;;;;;27.80;21.52;;;14.00;99.90;;;;;;5056476;28;20036;-72
2023/05/16 11:01:19;;;;;;;31.52;21.83;;;14.00;99.90;;;;;;5070495;28;20028;-72
2023/05/16 11:04:15;;;;;;;32.65;21.92;;;13.90;99.90;;;;;;5072944;28;20033;-72
2023/05/16 11:06:41;;;;;;;33.17;21.52;;;13.70;99.90;;;;;;5074626;28;20032;-72
2023/05/16 11:09:09;;;;;;;30.88;19.92;;;13.50;99.90;;;;;;5071100;28;20024;-72
2023/05/16 11:11:47;;;;;;;27.38;18.58;;;13.30;99.90;;;;;;5058996;28;20021;-73
2023/05/16 11:14:43;;;;;;;27.90;19.05;;;13.20;99.90;;;;;;5067876;28;20396;-73
2023/05/16 11:17:14;;;;;;;27.20;18.38;;;12.90;99.90;;;;;;5069165;28;20067;-72
2023/05/16 11:19:46;;;;;;;29.58;18.42;;;12.80;99.90;;;;;;5069248;28;20044;-72
2023/05/16 11:22:18;;;;;;;28.88;18.27;;;12.70;99.90;;;;;;5071760;28;20029;-72
2023/05/16 11:25:07;;;;;;;23.67;17.42;;;12.50;99.90;;;;;;5070413;28;20021;-73
2023/05/16 11:27:43;;;;;;;26.83;17.30;;;12.40;99.90;;;;;;5064590;28;20107;-72
2023/05/16 11:30:18;;;;;;;24.38;17.45;;;12.20;99.90;;;;;;5048429;28;20091;-72
2023/05/16 11:32:45;;;;;;;25.70;17.70;;;12.00;99.90;;;;;;5071044;28;20028;-72
2023/05/16 11:35:13;;;;;;;24.83;15.90;;;11.90;99.90;;;;;;5072796;28;20032;-72
2023/05/16 11:37:39;;;;;;;28.10;16.67;;;11.80;99.90;;;;;;5072155;28;20035;-73
2023/05/16 11:40:07;;;;;;;20.73;14.52;;;11.70;99.90;;;;;;5061789;28;20041;-73
2023/05/16 11:42:48;;;;;;;22.25;14.10;;;11.60;99.90;;;;;;5049468;28;20415;-73
2023/05/16 11:45:24;;;;;;;22.52;15.05;;;11.60;99.90;;;;;;5060711;28;20755;-72
2023/05/16 11:47:50;;;;;;;21.00;13.88;;;11.40;99.90;;;;;;5067550;28;20036;-72
2023/05/16 11:50:20;;;;;;;20.15;14.18;;;11.40;99.90;;;;;;5073528;28;20060;-72
2023/05/16 11:52:49;;;;;;;20.02;13.65;;;11.40;99.90;;;;;;5066509;28;20035;-72
2023/05/16 11:55:17;;;;;;;19.52;14.23;;;11.40;99.90;;;;;;5073516;28;20397;-72
2023/05/16 11:57:43;;;;;;;18.77;14.13;;;11.40;99.90;;;;;;5066561;28;20032;-72
2023/05/16 12:00:25;;;;;;;17.77;13.32;;;11.40;99.90;;;;;;5073576;28;20090;-73
2023/05/16 12:02:52;;;;;;;18.63;13.43;;;11.20;99.90;;;;;;5064843;28;20029;-73
2023/05/16 12:05:24;;;;;;;21.52;14.52;;;11.10;99.90;;;;;;5079393;28;20499;-74
2023/05/16 12:07:49;;;;;;;19.20;13.50;;;11.30;99.90;;;;;;5070850;28;20043;-73
2023/05/16 12:10:15;;;;;;;18.65;13.25;;;11.30;99.90;;;;;;5068298;28;20494;-74
2023/05/16 12:12:47;;;;;;;16.02;12.35;;;11.30;99.90;;;;;;5050510;28;20024;-72
2023/05/16 12:15:13;;;;;;;17.05;12.55;;;11.40;99.90;;;;;;5062539;28;20378;-73
2023/05/16 12:17:40;;;;;;;17.40;12.73;;;11.40;99.90;;;;;;5064401;28;20378;-73
2023/05/16 12:20:13;;;;;;;16.58;12.40;;;11.50;99.90;;;;;;5065795;28;20032;-74
2023/05/16 12:22:43;;;;;;;18.08;13.10;;;11.50;99.90;;;;;;5062436;28;20028;-75
2023/05/16 12:25:25;;;;;;;15.68;11.15;;;11.60;99.90;;;;;;5060710;28;20029;-74
2023/05/16 12:27:56;;;;;;;15.95;10.75;;;11.70;99.90;;;;;;5072476;28;21130;-74
2023/05/16 12:30:26;;;;;;;13.57;9.35;;;11.80;99.90;;;;;;5064842;28;20041;-68
2023/05/16 12:33:06;;;;;;;13.07;9.48;;;11.80;99.90;;;;;;5069301;28;20020;-75
2023/05/16 12:35:33;;;;;;;9.20;8.15;;;11.90;99.90;;;;;;5062804;28;20066;-73
2023/05/16 12:38:02;;;;;;;9.60;8.18;;;12.00;99.90;;;;;;5068785;28;20061;-74
2023/05/16 12:40:29;;;;;;;9.77;7.40;;;12.10;99.90;;;;;;5075305;28;20485;-74
2023/05/16 12:42:54;;;;;;;9.07;6.63;;;12.10;99.90;;;;;;5068428;28;20074;-74
2023/05/16 12:45:21;;;;;;;7.80;6.35;;;12.00;99.90;;;;;;5075110;28;20024;-70
2023/05/16 12:47:48;;;;;;;7.78;6.25;;;12.20;99.90;;;;;;5063826;28;20188;-74
2023/05/16 12:50:16;;;;;;;8.18;6.05;;;12.10;99.90;;;;;;5066437;28;20035;-74
2023/05/16 12:52:48;;;;;;;10.48;6.68;;;12.10;99.90;;;;;;5064910;28;20021;-74
2023/05/16 12:55:18;;;;;;;8.93;6.03;;;12.20;99.90;;;;;;5068607;28;20492;-74